Time;durP1;ratioP1;P1;durP2;ratioP2;P2;SDS_P1;SDS_P2;PMS_P1;PMS_P2;Temp;Humidity;BMP_temperature;BMP_pressure;BME280_temperature;BME280_humidity;BME280_pressure;Samples;Min_cycle;Max_cycle;Signal;HPM_P1;HPM_P2
2022/04/24 00:02:04;;;;;;;5.83;4.10;;;9.40;99.90;;;;;;5007776;28;20299;-60
2022/04/24 00:04:31;;;;;;;6.13;4.37;;;9.30;99.90;;;;;;5002335;28;20232;-60
2022/04/24 00:06:59;;;;;;;5.07;4.57;;;9.30;99.90;;;;;;5008497;28;20206;-60
2022/04/24 00:09:26;;;;;;;6.40;4.93;;;9.20;99.90;;;;;;4986339;28;20221;-60
2022/04/24 00:11:53;;;;;;;5.17;4.27;;;9.20;99.90;;;;;;5010923;28;20737;-60
2022/04/24 00:14:19;;;;;;;5.13;4.47;;;9.20;99.90;;;;;;4992796;28;20201;-60
2022/04/24 00:16:47;;;;;;;5.10;4.30;;;9.20;99.90;;;;;;5005906;28;20276;-60
2022/04/24 00:19:15;;;;;;;8.27;4.60;;;9.00;99.90;;;;;;5008163;28;20199;-60
2022/04/24 00:21:42;;;;;;;6.47;4.80;;;9.10;99.90;;;;;;5003842;28;20198;-60
2022/04/24 00:24:11;;;;;;;7.17;4.30;;;9.00;99.90;;;;;;4988325;28;20222;-60
2022/04/24 00:26:38;;;;;;;7.93;5.07;;;9.10;99.90;;;;;;5005040;28;20741;-61
2022/04/24 00:29:05;;;;;;;7.40;4.13;;;9.10;99.90;;;;;;4997463;28;20579;-61
2022/04/24 00:31:32;;;;;;;5.57;4.70;;;9.10;99.90;;;;;;5003642;28;20572;-60
2022/04/24 00:33:59;;;;;;;5.73;4.37;;;9.10;99.90;;;;;;5006531;28;20197;-60
2022/04/24 00:36:26;;;;;;;4.80;4.27;;;9.00;99.90;;;;;;4991044;28;20210;-60
2022/04/24 00:38:53;;;;;;;7.83;4.57;;;9.10;99.90;;;;;;5010813;28;20199;-60
2022/04/24 00:41:22;;;;;;;5.00;4.17;;;9.00;99.90;;;;;;4981640;28;20217;-60
2022/04/24 00:43:53;;;;;;;8.73;4.47;;;9.00;99.90;;;;;;4992407;28;20206;-60
2022/04/24 00:46:37;;;;;;;7.53;4.87;;;8.90;99.90;;;;;;5006123;28;20194;-60
2022/04/24 00:49:03;;;;;;;8.40;5.00;;;8.80;99.90;;;;;;5010972;28;20198;-60
2022/04/24 00:51:30;;;;;;;6.40;4.67;;;8.80;99.90;;;;;;5007319;28;20663;-60
2022/04/24 00:53:57;;;;;;;5.13;4.20;;;8.80;99.90;;;;;;5011913;28;20202;-60
2022/04/24 00:56:30;;;;;;;7.03;4.33;;;8.70;99.90;;;;;;4989709;28;20214;-60
2022/04/24 00:58:58;;;;;;;5.53;4.57;;;8.80;99.90;;;;;;5000568;28;20203;-60
2022/04/24 01:01:25;;;;;;;7.07;4.50;;;8.70;99.90;;;;;;4990877;28;20210;-60
2022/04/24 01:03:53;;;;;;;6.00;4.60;;;8.60;99.90;;;;;;5010243;28;20330;-60
2022/04/24 01:06:20;;;;;;;5.13;4.10;;;8.70;99.90;;;;;;5010194;28;20226;-60
2022/04/24 01:08:48;;;;;;;5.37;4.40;;;8.70;99.90;;;;;;5009424;28;20204;-60
2022/04/24 01:11:15;;;;;;;7.67;4.67;;;8.70;99.90;;;;;;4989992;28;20682;-59
2022/04/24 01:13:43;;;;;;;7.27;4.43;;;8.70;99.90;;;;;;4998035;28;20209;-60
2022/04/24 01:16:10;;;;;;;8.60;4.67;;;8.70;99.90;;;;;;4996735;28;20206;-60
2022/04/24 01:18:38;;;;;;;4.70;4.20;;;8.70;99.90;;;;;;5003892;28;20280;-60
2022/04/24 01:21:10;;;;;;;7.57;4.60;;;8.60;99.90;;;;;;5010011;28;20203;-60
2022/04/24 01:23:38;;;;;;;6.83;4.30;;;8.50;99.90;;;;;;5010382;28;20222;-64
2022/04/24 01:26:05;;;;;;;5.60;4.40;;;8.40;99.90;;;;;;4987508;28;20226;-60
2022/04/24 01:28:32;;;;;;;6.10;4.43;;;8.50;99.90;;;;;;4991357;28;20791;-60
2022/04/24 01:30:59;;;;;;;5.53;4.30;;;8.40;99.90;;;;;;4996151;28;20294;-59
2022/04/24 01:33:28;;;;;;;5.63;4.30;;;8.50;99.90;;;;;;5002822;28;21134;-60
2022/04/24 01:35:55;;;;;;;5.10;4.20;;;8.50;99.90;;;;;;5003718;28;20225;-59
2022/04/24 01:38:23;;;;;;;5.40;4.53;;;8.50;99.90;;;;;;5009453;28;20198;-60
2022/04/24 01:40:50;;;;;;;5.23;4.33;;;8.40;99.90;;;;;;4989038;28;20217;-60
2022/04/24 01:43:17;;;;;;;5.97;4.40;;;8.30;99.90;;;;;;5008212;28;20943;-60
2022/04/24 01:45:44;;;;;;;5.53;4.37;;;8.20;99.90;;;;;;4993314;28;20227;-63
2022/04/24 01:48:11;;;;;;;6.57;4.60;;;8.20;99.90;;;;;;5010457;28;20194;-60
2022/04/24 01:50:38;;;;;;;5.70;4.53;;;8.20;99.90;;;;;;5003234;28;20664;-60
2022/04/24 01:53:05;;;;;;;8.57;4.77;;;8.20;99.90;;;;;;5012726;28;20584;-60
2022/04/24 01:55:33;;;;;;;7.30;4.57;;;8.00;99.90;;;;;;4989280;28;20223;-60
2022/04/24 01:58:00;;;;;;;5.63;4.07;;;8.10;99.90;;;;;;5012478;28;20204;-60
2022/04/24 02:00:28;;;;;;;6.47;3.80;;;8.10;99.90;;;;;;5003281;28;20201;-60
2022/04/24 02:02:55;;;;;;;9.00;4.40;;;8.10;99.90;;;;;;4994797;28;20652;-60
2022/04/24 02:05:22;;;;;;;7.27;4.00;;;8.10;99.90;;;;;;5008488;28;20233;-60
2022/04/24 02:07:49;;;;;;;5.60;4.23;;;8.10;99.90;;;;;;5010278;28;20220;-60
2022/04/24 02:10:16;;;;;;;7.07;4.53;;;7.90;99.90;;;;;;5009815;28;20204;-60
2022/04/24 02:12:44;;;;;;;5.27;4.23;;;7.80;99.90;;;;;;4988958;28;20712;-59
2022/04/24 02:15:11;;;;;;;5.20;4.30;;;7.90;99.90;;;;;;5012399;28;20212;-60
2022/04/24 02:17:38;;;;;;;8.50;4.40;;;7.80;99.90;;;;;;4997142;28;20216;-60
2022/04/24 02:20:06;;;;;;;4.53;4.07;;;7.80;99.90;;;;;;5008761;28;20211;-60
2022/04/24 02:22:33;;;;;;;8.00;4.20;;;7.80;99.90;;;;;;5004862;28;20222;-59
2022/04/24 02:25:00;;;;;;;7.80;4.70;;;7.80;99.90;;;;;;5009659;28;20242;-60
2022/04/24 02:27:28;;;;;;;9.60;4.53;;;7.80;99.90;;;;;;4986559;28;20206;-60
2022/04/24 02:29:56;;;;;;;6.67;4.20;;;7.90;99.90;;;;;;5008157;28;20366;-60
2022/04/24 02:32:23;;;;;;;5.80;3.77;;;7.90;99.90;;;;;;4998042;28;20194;-60
2022/04/24 02:34:50;;;;;;;7.20;4.53;;;7.90;99.90;;;;;;5009813;28;20692;-60
2022/04/24 02:37:17;;;;;;;7.00;4.70;;;7.90;99.90;;;;;;5010347;28;20600;-60
2022/04/24 02:39:44;;;;;;;5.93;4.23;;;7.90;99.90;;;;;;5007277;28;20223;-59
2022/04/24 02:42:12;;;;;;;5.80;4.60;;;7.90;99.90;;;;;;5008380;28;20210;-60
2022/04/24 02:44:38;;;;;;;6.53;4.30;;;7.80;99.90;;;;;;4996732;28;21034;-59
2022/04/24 02:47:07;;;;;;;6.27;4.40;;;7.80;99.90;;;;;;5011213;28;20271;-60
2022/04/24 02:49:34;;;;;;;5.37;4.47;;;7.70;99.90;;;;;;4996360;28;20871;-60
2022/04/24 02:52:01;;;;;;;5.43;3.90;;;7.70;99.90;;;;;;5012379;28;20308;-60
2022/04/24 02:54:28;;;;;;;6.40;4.23;;;7.70;99.90;;;;;;5005930;28;20206;-60
2022/04/24 02:56:55;;;;;;;10.93;4.93;;;7.70;99.90;;;;;;5008936;28;20213;-60
2022/04/24 02:59:25;;;;;;;4.90;4.20;;;7.60;99.90;;;;;;4985144;28;20217;-60
2022/04/24 03:01:54;;;;;;;8.10;4.20;;;7.60;99.90;;;;;;5005365;28;20212;-60
2022/04/24 03:04:22;;;;;;;7.10;4.23;;;7.60;99.90;;;;;;4995780;28;20754;-60
2022/04/24 03:06:49;;;;;;;6.30;4.27;;;7.60;99.90;;;;;;5011040;28;20277;-60
2022/04/24 03:09:16;;;;;;;6.97;4.73;;;7.60;99.90;;;;;;5010016;28;20212;-60
2022/04/24 03:11:43;;;;;;;5.20;4.27;;;7.70;99.90;;;;;;5009505;28;20303;-60
2022/04/24 03:14:10;;;;;;;5.57;4.30;;;7.70;99.90;;;;;;4993817;28;20200;-59
2022/04/24 03:16:37;;;;;;;6.70;4.60;;;7.80;99.90;;;;;;5008560;28;20205;-60
2022/04/24 03:19:04;;;;;;;7.97;4.57;;;7.70;99.90;;;;;;4996771;28;20216;-60
2022/04/24 03:21:32;;;;;;;5.77;4.53;;;7.80;99.90;;;;;;5005907;28;20756;-60
2022/04/24 03:23:59;;;;;;;7.17;4.90;;;7.90;99.90;;;;;;5007610;28;21180;-60
2022/04/24 03:26:26;;;;;;;8.23;5.07;;;8.00;99.90;;;;;;5004180;28;20234;-60
2022/04/24 03:28:53;;;;;;;7.77;4.70;;;7.90;99.90;;;;;;4989854;28;20208;-60
2022/04/24 03:31:20;;;;;;;9.10;4.83;;;7.90;99.90;;;;;;5005636;28;20211;-59
2022/04/24 03:33:47;;;;;;;6.53;4.33;;;7.90;99.90;;;;;;5011277;28;20198;-60
2022/04/24 03:36:14;;;;;;;7.13;4.90;;;7.90;99.90;;;;;;4995474;28;20202;-60
2022/04/24 03:38:42;;;;;;;8.63;5.33;;;7.90;99.90;;;;;;5009249;28;20313;-60
2022/04/24 03:41:09;;;;;;;8.70;4.70;;;7.80;99.90;;;;;;5006428;28;20211;-60
2022/04/24 03:43:36;;;;;;;5.57;4.40;;;7.90;99.90;;;;;;5010324;28;20201;-59
2022/04/24 03:46:03;;;;;;;8.80;4.80;;;7.90;99.90;;;;;;4989987;28;20229;-60
2022/04/24 03:48:30;;;;;;;8.87;5.10;;;8.00;99.90;;;;;;5005053;28;20555;-60
2022/04/24 03:50:57;;;;;;;7.77;4.97;;;7.90;99.90;;;;;;4995118;28;20216;-60
2022/04/24 03:53:24;;;;;;;8.43;5.10;;;8.00;99.90;;;;;;5005334;28;20230;-60
2022/04/24 03:55:52;;;;;;;8.97;5.03;;;8.00;99.90;;;;;;5008598;28;20198;-60
2022/04/24 03:58:19;;;;;;;5.83;4.03;;;7.90;99.90;;;;;;5003056;28;20200;-60
2022/04/24 04:00:46;;;;;;;8.77;5.20;;;8.00;99.90;;;;;;4989633;28;20596;-60
2022/04/24 04:03:13;;;;;;;7.93;4.53;;;7.90;99.90;;;;;;4996061;28;20760;-59
2022/04/24 04:05:40;;;;;;;8.97;4.90;;;7.90;99.90;;;;;;4997815;28;21061;-60
2022/04/24 04:08:07;;;;;;;7.93;5.03;;;8.00;99.90;;;;;;5010178;28;20215;-60
2022/04/24 04:10:35;;;;;;;8.43;4.80;;;7.90;99.90;;;;;;5010790;28;20198;-59
2022/04/24 04:13:07;;;;;;;6.93;4.70;;;7.90;99.90;;;;;;5005595;28;21003;-60
2022/04/24 04:15:35;;;;;;;6.47;4.37;;;7.90;99.90;;;;;;5007847;28;20230;-60
2022/04/24 04:18:02;;;;;;;7.17;4.80;;;8.00;99.90;;;;;;4979762;28;20343;-60
2022/04/24 04:20:29;;;;;;;7.80;4.70;;;8.00;99.90;;;;;;5006502;28;20201;-59
2022/04/24 04:22:56;;;;;;;9.77;4.10;;;8.00;99.90;;;;;;4994002;28;20244;-60
2022/04/24 04:25:24;;;;;;;6.10;4.30;;;8.00;99.90;;;;;;5011059;28;20595;-60
2022/04/24 04:27:51;;;;;;;8.37;4.37;;;8.00;99.90;;;;;;5008098;28;20208;-60
2022/04/24 04:30:20;;;;;;;7.03;4.10;;;8.10;99.90;;;;;;5001076;28;20206;-60
2022/04/24 04:32:48;;;;;;;7.27;4.27;;;8.10;99.90;;;;;;4989564;28;20223;-60
2022/04/24 04:35:15;;;;;;;6.83;4.03;;;8.10;99.90;;;;;;4994604;28;20292;-60
2022/04/24 04:37:41;;;;;;;7.57;4.40;;;8.10;99.90;;;;;;4988759;28;20310;-60
2022/04/24 04:40:10;;;;;;;5.83;4.20;;;8.00;99.90;;;;;;5000164;28;20202;-60
2022/04/24 04:42:37;;;;;;;5.90;3.73;;;8.00;99.90;;;;;;4996010;28;20203;-60
2022/04/24 04:45:06;;;;;;;4.47;3.37;;;8.10;99.90;;;;;;4987453;28;20221;-60
2022/04/24 04:47:34;;;;;;;5.67;3.57;;;8.10;99.90;;;;;;4987159;28;20234;-60
2022/04/24 04:50:02;;;;;;;8.97;3.60;;;8.20;99.90;;;;;;4991200;28;20211;-60
2022/04/24 04:52:29;;;;;;;4.17;3.13;;;8.10;99.90;;;;;;4982894;28;20263;-60
2022/04/24 04:54:56;;;;;;;6.47;3.77;;;8.20;99.90;;;;;;4993759;28;20777;-60
2022/04/24 04:57:23;;;;;;;5.40;3.90;;;8.20;99.90;;;;;;4989838;28;20206;-59
2022/04/24 04:59:50;;;;;;;4.70;3.60;;;8.30;99.90;;;;;;5000455;28;20194;-60
2022/04/24 05:02:17;;;;;;;8.20;3.90;;;8.30;99.90;;;;;;4983448;28;20875;-59
2022/04/24 05:04:45;;;;;;;5.23;3.40;;;8.30;99.90;;;;;;4990377;28;20227;-59
2022/04/24 05:07:12;;;;;;;7.23;3.73;;;8.30;99.90;;;;;;4993945;28;20720;-60
2022/04/24 05:09:40;;;;;;;5.20;3.40;;;8.30;99.90;;;;;;4984012;28;20596;-60
2022/04/24 05:12:08;;;;;;;5.17;3.40;;;8.30;99.90;;;;;;5002628;28;20285;-59
2022/04/24 05:14:35;;;;;;;4.73;3.80;;;8.30;99.90;;;;;;4989729;28;20199;-60
2022/04/24 05:17:05;;;;;;;8.47;3.37;;;8.40;99.90;;;;;;5002377;28;20860;-60
2022/04/24 05:19:32;;;;;;;4.40;2.97;;;8.30;99.90;;;;;;4971709;28;20221;-58
2022/04/24 05:22:01;;;;;;;4.73;3.10;;;8.30;99.90;;;;;;4987884;28;20261;-59
2022/04/24 05:24:28;;;;;;;4.90;3.10;;;8.40;99.90;;;;;;4992186;28;20237;-58
2022/04/24 05:26:55;;;;;;;6.30;3.50;;;8.30;99.90;;;;;;5003625;28;20248;-59
2022/04/24 05:29:22;;;;;;;4.87;2.83;;;8.30;99.90;;;;;;5005717;28;20286;-59
2022/04/24 05:31:49;;;;;;;5.53;2.80;;;8.20;99.90;;;;;;5013683;28;20221;-59
2022/04/24 05:34:16;;;;;;;6.50;3.17;;;8.20;99.90;;;;;;4991705;28;20236;-59
2022/04/24 05:36:42;;;;;;;4.23;3.00;;;8.10;99.90;;;;;;5014267;28;20210;-61
2022/04/24 05:39:11;;;;;;;5.00;3.20;;;8.10;99.90;;;;;;5009900;28;20217;-59
2022/04/24 05:41:38;;;;;;;4.83;3.00;;;8.00;99.90;;;;;;5016103;28;20232;-61
2022/04/24 05:44:05;;;;;;;6.53;3.43;;;8.00;99.90;;;;;;5016917;28;20204;-59
2022/04/24 05:46:32;;;;;;;5.60;2.73;;;8.00;99.90;;;;;;5015260;28;20288;-59
2022/04/24 05:49:00;;;;;;;6.93;2.70;;;8.00;99.90;;;;;;4997315;28;20259;-60
2022/04/24 05:51:27;;;;;;;7.30;3.33;;;8.00;99.90;;;;;;4996181;28;20634;-59
2022/04/24 05:53:54;;;;;;;7.10;3.80;;;8.10;99.90;;;;;;4988310;28;20212;-59
2022/04/24 05:56:23;;;;;;;5.27;2.83;;;8.10;99.90;;;;;;5005491;28;20303;-59
2022/04/24 05:58:50;;;;;;;6.23;3.13;;;8.20;99.90;;;;;;5007932;28;20202;-60
2022/04/24 06:01:16;;;;;;;4.23;3.07;;;8.20;99.90;;;;;;4995359;28;21176;-59
2022/04/24 06:03:44;;;;;;;6.97;3.17;;;8.20;99.90;;;;;;4991122;28;20222;-60
2022/04/24 06:06:12;;;;;;;4.97;2.80;;;8.30;99.90;;;;;;4997277;28;20244;-61
2022/04/24 06:08:38;;;;;;;5.23;2.93;;;8.30;99.90;;;;;;5001897;28;20291;-59
2022/04/24 06:11:05;;;;;;;4.57;2.93;;;8.30;99.90;;;;;;4990716;28;20221;-60
2022/04/24 06:13:34;;;;;;;5.13;2.90;;;8.40;99.90;;;;;;5006993;28;20205;-59
2022/04/24 06:16:01;;;;;;;5.17;2.93;;;8.50;99.90;;;;;;5015018;28;20233;-59
2022/04/24 06:18:28;;;;;;;6.20;3.40;;;8.60;99.90;;;;;;5018887;28;20209;-59
2022/04/24 06:20:56;;;;;;;4.23;2.90;;;8.60;99.90;;;;;;4975999;28;20226;-60
2022/04/24 06:23:24;;;;;;;3.77;3.03;;;8.60;99.90;;;;;;4991147;28;20578;-59
2022/04/24 06:25:51;;;;;;;5.77;3.00;;;8.70;99.90;;;;;;4992950;28;20201;-61
2022/04/24 06:28:18;;;;;;;7.17;3.47;;;8.70;99.90;;;;;;5001036;28;20234;-60
2022/04/24 06:30:47;;;;;;;6.03;3.27;;;8.80;99.90;;;;;;5010287;28;20259;-60
2022/04/24 06:33:15;;;;;;;5.53;3.27;;;8.90;99.90;;;;;;5010471;28;20249;-60
2022/04/24 06:35:44;;;;;;;4.90;3.20;;;8.80;99.90;;;;;;4992475;28;20760;-59
2022/04/24 06:38:11;;;;;;;9.83;3.53;;;9.00;99.90;;;;;;5003931;28;20210;-59
2022/04/24 06:40:39;;;;;;;6.30;3.60;;;9.00;99.90;;;;;;4998846;28;20208;-60
2022/04/24 06:43:07;;;;;;;7.10;4.10;;;9.10;99.90;;;;;;5008684;28;20194;-59
2022/04/24 06:45:36;;;;;;;6.67;3.63;;;9.10;99.90;;;;;;5015203;28;20204;-60
2022/04/24 06:48:07;;;;;;;6.47;4.00;;;9.10;99.90;;;;;;5014638;28;20230;-59
2022/04/24 06:50:35;;;;;;;5.27;3.67;;;9.10;99.90;;;;;;5009301;28;20714;-60
2022/04/24 06:53:06;;;;;;;7.17;4.70;;;9.20;99.90;;;;;;4987061;28;20217;-60
2022/04/24 06:55:35;;;;;;;9.13;3.87;;;9.30;99.90;;;;;;4997261;28;20206;-59
2022/04/24 06:58:03;;;;;;;5.87;4.53;;;9.30;99.90;;;;;;5000368;28;20317;-60
2022/04/24 07:00:32;;;;;;;7.70;4.73;;;9.30;99.90;;;;;;5007380;28;20584;-60
2022/04/24 07:02:59;;;;;;;11.00;4.30;;;9.40;99.90;;;;;;5006058;28;20190;-59
2022/04/24 07:05:28;;;;;;;9.67;4.80;;;9.40;99.90;;;;;;5010229;28;20638;-60
2022/04/24 07:07:55;;;;;;;6.90;4.40;;;9.40;99.90;;;;;;4980568;28;20236;-60
2022/04/24 07:10:22;;;;;;;7.77;4.67;;;9.50;99.90;;;;;;4998155;28;20217;-59
2022/04/24 07:12:50;;;;;;;13.37;4.73;;;9.50;99.90;;;;;;4991969;28;20228;-59
2022/04/24 07:15:18;;;;;;;9.07;4.67;;;9.60;99.90;;;;;;5005326;28;20218;-60
2022/04/24 07:17:46;;;;;;;9.47;4.47;;;9.60;99.90;;;;;;5014758;28;20196;-60
2022/04/24 07:20:14;;;;;;;6.63;4.50;;;9.70;99.90;;;;;;5013040;28;20210;-60
2022/04/24 07:22:47;;;;;;;6.30;4.23;;;9.80;99.90;;;;;;4993635;28;20210;-60
2022/04/24 07:25:15;;;;;;;7.57;4.07;;;9.80;99.90;;;;;;5004480;28;20226;-60
2022/04/24 07:27:43;;;;;;;7.63;4.43;;;9.80;99.90;;;;;;4999897;28;20595;-59
2022/04/24 07:30:14;;;;;;;7.73;4.13;;;9.90;99.90;;;;;;5003521;28;20223;-59
2022/04/24 07:32:42;;;;;;;7.20;4.63;;;9.90;99.90;;;;;;5008311;28;20194;-61
2022/04/24 07:35:11;;;;;;;8.83;3.93;;;10.00;99.90;;;;;;5000731;28;21398;-60
2022/04/24 07:37:38;;;;;;;6.43;4.10;;;10.20;99.90;;;;;;4973193;28;20241;-60
2022/04/24 07:40:09;;;;;;;6.17;4.17;;;10.10;99.90;;;;;;4989251;28;20229;-60
2022/04/24 07:42:47;;;;;;;7.23;3.70;;;10.20;99.90;;;;;;4985964;28;20230;-60
2022/04/24 07:45:19;;;;;;;7.90;4.60;;;10.30;99.90;;;;;;4990995;28;20311;-60
2022/04/24 07:47:46;;;;;;;5.73;3.73;;;10.40;99.90;;;;;;4999873;28;20226;-60
2022/04/24 07:50:14;;;;;;;6.73;3.83;;;10.50;99.90;;;;;;4981983;28;20230;-60
2022/04/24 07:52:42;;;;;;;4.07;3.40;;;10.50;99.90;;;;;;4985951;28;22087;-60
2022/04/24 07:55:12;;;;;;;9.63;3.70;;;10.50;99.90;;;;;;4967066;28;20619;-60
2022/04/24 07:57:39;;;;;;;8.97;4.47;;;10.50;99.90;;;;;;4971206;28;20682;-60
2022/04/24 08:00:09;;;;;;;5.20;3.57;;;10.60;99.90;;;;;;5000207;28;20241;-59
2022/04/24 08:02:49;;;;;;;6.30;3.87;;;10.60;99.90;;;;;;4995271;28;20206;-60
2022/04/24 08:05:23;;;;;;;7.10;3.40;;;10.80;99.90;;;;;;5007657;28;20202;-60
2022/04/24 08:07:50;;;;;;;7.67;3.90;;;10.90;99.90;;;;;;5004097;28;20366;-61
2022/04/24 08:10:19;;;;;;;5.60;3.80;;;11.00;99.90;;;;;;4977941;28;20980;-60
2022/04/24 08:12:47;;;;;;;6.43;3.75;;;11.00;99.90;;;;;;4975159;28;20316;-60
2022/04/24 08:15:14;;;;;;;7.47;3.23;;;11.00;99.90;;;;;;4989595;28;20336;-61
2022/04/24 08:17:41;;;;;;;4.22;2.80;;;11.00;99.90;;;;;;4987638;28;20198;-60
2022/04/24 08:20:09;;;;;;;6.83;3.20;;;11.10;99.90;;;;;;4998986;28;21352;-60
2022/04/24 08:22:40;;;;;;;6.10;3.30;;;11.20;99.90;;;;;;4996721;28;20206;-60
2022/04/24 08:25:09;;;;;;;6.63;3.33;;;11.20;99.90;;;;;;4968232;28;20234;-60
2022/04/24 08:27:39;;;;;;;5.65;2.85;;;11.20;99.90;;;;;;4973900;28;20226;-60
2022/04/24 08:30:08;;;;;;;5.80;2.88;;;11.30;99.90;;;;;;4987083;28;20603;-60
2022/04/24 08:32:37;;;;;;;4.72;3.03;;;11.40;99.90;;;;;;5000695;28;20226;-60
2022/04/24 08:35:05;;;;;;;9.63;2.80;;;11.50;99.90;;;;;;5007884;28;20299;-60
2022/04/24 08:37:33;;;;;;;4.22;2.80;;;11.50;99.90;;;;;;5005334;28;20194;-61
2022/04/24 08:40:01;;;;;;;3.35;2.65;;;11.50;99.90;;;;;;4995946;23;20313;-60
2022/04/24 08:42:28;;;;;;;4.28;3.00;;;11.60;99.90;;;;;;4971142;28;20226;-61
2022/04/24 08:44:57;;;;;;;5.47;2.80;;;11.70;99.90;;;;;;4978692;28;20334;-60
2022/04/24 08:47:26;;;;;;;4.53;3.22;;;11.70;99.90;;;;;;4970615;28;20231;-61
2022/04/24 08:49:55;;;;;;;3.92;2.85;;;11.70;99.90;;;;;;4970084;28;20206;-61
2022/04/24 08:52:23;;;;;;;5.68;3.38;;;11.90;99.90;;;;;;4962552;28;20237;-61
2022/04/24 08:54:51;;;;;;;4.75;2.63;;;11.90;99.90;;;;;;4974269;28;20227;-61
2022/04/24 08:57:19;;;;;;;5.07;2.53;;;12.00;99.90;;;;;;4931305;28;20605;-61
2022/04/24 08:59:48;;;;;;;4.50;2.65;;;12.00;99.90;;;;;;4953239;28;20233;-60
2022/04/24 09:02:16;;;;;;;5.20;2.80;;;11.90;99.90;;;;;;4961602;28;20736;-61
2022/04/24 09:04:43;;;;;;;3.88;2.95;;;11.90;99.90;;;;;;4964261;28;20219;-60
2022/04/24 09:07:17;;;;;;;4.60;2.85;;;12.00;99.90;;;;;;4983272;28;23700;-60
2022/04/24 09:09:46;;;;;;;3.17;2.50;;;12.10;99.90;;;;;;4983102;28;20203;-61
2022/04/24 09:12:15;;;;;;;3.45;2.42;;;12.20;99.90;;;;;;4959098;28;20222;-61
2022/04/24 09:14:47;;;;;;;5.47;2.78;;;12.30;99.90;;;;;;4957739;28;20318;-60
2022/04/24 09:17:19;;;;;;;3.05;2.47;;;12.50;99.90;;;;;;4972376;28;22868;-61
2022/04/24 09:19:47;;;;;;;4.35;2.63;;;12.50;99.90;;;;;;4992943;28;20229;-61
2022/04/24 09:22:14;;;;;;;3.63;2.50;;;12.50;99.90;;;;;;4988103;28;20213;-61
2022/04/24 09:24:43;;;;;;;4.20;2.50;;;12.50;99.90;;;;;;4996662;28;20201;-61
2022/04/24 09:27:11;;;;;;;4.53;2.40;;;12.60;99.90;;;;;;4962437;28;20238;-61
2022/04/24 09:29:40;;;;;;;3.80;2.50;;;12.70;99.90;;;;;;4976945;28;20674;-60
2022/04/24 09:32:11;;;;;;;3.42;3.13;;;12.70;99.90;;;;;;4984377;28;20209;-61
2022/04/24 09:34:40;;;;;;;3.40;2.40;;;12.80;99.90;;;;;;4985696;28;20238;-61
2022/04/24 09:37:09;;;;;;;4.45;2.60;;;12.80;99.90;;;;;;4984520;28;20241;-61
2022/04/24 09:39:37;;;;;;;6.72;2.72;;;12.80;99.90;;;;;;4992215;28;20225;-61
2022/04/24 09:42:06;;;;;;;3.33;2.35;;;12.80;99.90;;;;;;4975776;28;20805;-61
2022/04/24 09:44:43;;;;;;;5.00;2.70;;;12.90;99.90;;;;;;4973069;28;20238;-61
2022/04/24 09:47:10;;;;;;;2.85;2.30;;;12.90;99.90;;;;;;4958714;28;20234;-61
2022/04/24 09:49:41;;;;;;;4.03;2.10;;;13.00;99.90;;;;;;4968465;28;20226;-60
2022/04/24 09:52:12;;;;;;;4.78;3.38;;;13.00;99.90;;;;;;4976613;28;20254;-61
2022/04/24 09:54:41;;;;;;;5.78;2.50;;;13.10;99.90;;;;;;4985546;28;20223;-61
2022/04/24 09:57:11;;;;;;;6.65;2.67;;;13.20;99.90;;;;;;4981953;28;20665;-60
2022/04/24 09:59:41;;;;;;;3.03;2.35;;;13.00;99.90;;;;;;4961187;28;20855;-61
2022/04/24 10:02:08;;;;;;;3.97;2.40;;;13.00;99.90;;;;;;4969847;28;20280;-61
2022/04/24 10:04:38;;;;;;;3.08;2.55;;;13.00;99.90;;;;;;4974141;28;21003;-61
2022/04/24 10:07:10;;;;;;;2.97;2.42;;;13.00;99.90;;;;;;4971629;28;20246;-61
2022/04/24 10:09:39;;;;;;;2.33;2.13;;;13.00;99.90;;;;;;4974725;28;20208;-61
2022/04/24 10:12:08;;;;;;;6.07;2.63;;;13.00;99.90;;;;;;4984096;28;20748;-61
2022/04/24 10:14:41;;;;;;;4.63;2.63;;;13.10;99.90;;;;;;4958936;28;21737;-60
2022/04/24 10:17:38;;;;;;;3.30;2.47;;;13.10;99.90;;;;;;4990807;28;20207;-61
2022/04/24 10:20:42;;;;;;;3.38;2.30;;;13.20;99.90;;;;;;4967526;28;20224;-61
2022/04/24 10:23:12;;;;;;;2.85;2.40;;;13.40;99.90;;;;;;4974545;28;20746;-59
2022/04/24 10:25:41;;;;;;;4.05;2.38;;;13.50;99.90;;;;;;4976662;28;20451;-60
2022/04/24 10:28:13;;;;;;;2.30;2.05;;;13.40;99.90;;;;;;4994676;28;20248;-60
2022/04/24 10:30:41;;;;;;;3.17;2.47;;;13.40;99.90;;;;;;4963739;28;20210;-60
2022/04/24 10:33:22;;;;;;;3.15;2.10;;;13.40;99.90;;;;;;4976553;28;20293;-59
2022/04/24 10:35:51;;;;;;;6.18;2.50;;;13.50;99.90;;;;;;4976923;28;20207;-60
2022/04/24 10:38:21;;;;;;;4.03;2.33;;;13.40;99.90;;;;;;4968952;28;20317;-60
2022/04/24 10:41:03;;;;;;;2.72;2.10;;;13.50;99.90;;;;;;4961351;28;20238;-60
2022/04/24 10:43:37;;;;;;;2.67;2.13;;;13.40;99.90;;;;;;4978551;28;20250;-59
2022/04/24 10:46:17;;;;;;;5.75;2.10;;;13.40;99.90;;;;;;4962965;28;20233;-60
2022/04/24 10:48:43;;;;;;;3.10;2.45;;;13.40;99.90;;;;;;4977663;28;20234;-60
2022/04/24 10:51:11;;;;;;;2.17;1.98;;;13.40;99.90;;;;;;4967769;28;20269;-59
2022/04/24 10:53:52;;;;;;;2.80;2.28;;;13.50;99.90;;;;;;4985553;28;20223;-59
2022/04/24 10:56:19;;;;;;;3.88;2.90;;;13.40;99.90;;;;;;4960860;28;20227;-60
2022/04/24 10:58:48;;;;;;;12.63;2.60;;;13.20;99.90;;;;;;4971282;28;20262;-60
2022/04/24 11:01:17;;;;;;;2.33;2.00;;;13.30;99.90;;;;;;4970300;28;20584;-60
2022/04/24 11:03:46;;;;;;;4.00;2.47;;;13.40;99.90;;;;;;4961881;28;20203;-60
2022/04/24 11:06:23;;;;;;;3.05;2.13;;;13.50;99.90;;;;;;4982428;28;20237;-59
2022/04/24 11:08:52;;;;;;;3.03;2.65;;;13.60;99.90;;;;;;4971521;28;20274;-60
2022/04/24 11:11:20;;;;;;;6.53;2.53;;;13.50;99.90;;;;;;4991712;28;20194;-60
2022/04/24 11:13:47;;;;;;;2.55;2.22;;;13.50;99.90;;;;;;4971757;28;20208;-60
2022/04/24 11:16:15;;;;;;;3.38;2.40;;;13.50;99.90;;;;;;4986033;28;20353;-59
2022/04/24 11:18:48;;;;;;;2.92;2.63;;;13.60;99.90;;;;;;4946162;28;20210;-60
2022/04/24 11:21:21;;;;;;;7.78;2.50;;;13.60;99.90;;;;;;4980147;28;20297;-59
2022/04/24 11:23:49;;;;;;;3.05;2.30;;;13.50;99.90;;;;;;4980015;28;20254;-58
2022/04/24 11:26:17;;;;;;;4.60;2.47;;;13.50;99.90;;;;;;4983599;28;20707;-59
2022/04/24 11:28:46;;;;;;;2.97;1.90;;;13.30;99.90;;;;;;4972755;28;20233;-61
2022/04/24 11:31:19;;;;;;;4.97;2.50;;;13.40;99.90;;;;;;4979904;28;20597;-58
2022/04/24 11:33:54;;;;;;;3.35;2.40;;;13.50;99.90;;;;;;4971009;28;20280;-60
2022/04/24 11:36:23;;;;;;;3.95;2.78;;;13.50;99.90;;;;;;4925798;28;20230;-59
2022/04/24 11:38:51;;;;;;;3.22;2.53;;;13.50;99.90;;;;;;4958175;28;20732;-59
2022/04/24 11:41:21;;;;;;;2.58;2.38;;;13.70;99.90;;;;;;4960629;28;20226;-60
2022/04/24 11:43:49;;;;;;;2.40;2.20;;;13.60;99.90;;;;;;4963629;28;20253;-59
2022/04/24 11:51:53;;;;;;;3.55;2.47;;;13.70;99.90;;;;;;4965660;28;24043;-60
2022/04/24 11:54:21;;;;;;;3.42;2.22;;;13.70;99.90;;;;;;4962085;28;20229;-60
2022/04/24 11:56:52;;;;;;;4.38;2.50;;;13.80;99.90;;;;;;4976075;28;20667;-60
2022/04/24 11:59:20;;;;;;;4.28;2.53;;;13.90;99.90;;;;;;4968972;28;20309;-60
2022/04/24 12:01:56;;;;;;;3.90;2.35;;;13.80;99.90;;;;;;4983036;28;20253;-61
2022/04/24 12:04:28;;;;;;;4.30;3.05;;;13.90;99.90;;;;;;4961333;28;20233;-60
2022/04/24 12:07:02;;;;;;;4.85;2.65;;;13.80;99.90;;;;;;4961011;28;20222;-60
2022/04/24 12:09:29;;;;;;;4.03;2.35;;;13.60;99.90;;;;;;4978883;28;20222;-60
2022/04/24 12:12:10;;;;;;;3.10;2.30;;;13.50;99.90;;;;;;4954284;28;20234;-60
2022/04/24 12:14:41;;;;;;;7.85;2.65;;;13.50;99.90;;;;;;4981616;28;20230;-59
2022/04/24 12:17:11;;;;;;;3.85;2.45;;;13.50;99.90;;;;;;4984141;28;20314;-60
2022/04/24 12:19:40;;;;;;;3.15;1.95;;;13.80;99.90;;;;;;4968164;28;20261;-61
2022/04/24 12:22:09;;;;;;;6.28;2.40;;;13.90;99.90;;;;;;4971601;28;20222;-60
2022/04/24 12:24:42;;;;;;;4.38;2.08;;;14.20;99.90;;;;;;4983622;28;21194;-61
2022/04/24 12:27:14;;;;;;;3.90;2.17;;;14.20;99.90;;;;;;4968373;28;20222;-61
2022/04/24 12:29:48;;;;;;;5.07;2.60;;;14.20;99.90;;;;;;4983467;28;20249;-61
2022/04/24 12:32:17;;;;;;;3.63;2.42;;;14.30;99.90;;;;;;4989040;28;20225;-59
2022/04/24 12:34:46;;;;;;;3.60;2.63;;;14.30;99.90;;;;;;4960269;28;20239;-61
2022/04/24 12:37:16;;;;;;;3.33;2.40;;;14.20;99.90;;;;;;4977111;28;20206;-60
2022/04/24 12:39:53;;;;;;;4.65;2.65;;;14.20;99.90;;;;;;4997563;28;20337;-60
2022/04/24 12:42:22;;;;;;;10.73;2.28;;;14.20;99.90;;;;;;4990746;28;20235;-60
2022/04/24 12:44:50;;;;;;;2.42;2.05;;;14.20;99.90;;;;;;4974849;28;20231;-61
2022/04/24 12:47:17;;;;;;;2.65;2.25;;;14.30;99.90;;;;;;4978162;28;20223;-61
2022/04/24 12:49:46;;;;;;;5.55;2.22;;;14.40;99.90;;;;;;4952485;28;20369;-60
2022/04/24 12:52:13;;;;;;;8.43;2.28;;;14.30;99.90;;;;;;4967077;28;20210;-60
2022/04/24 12:54:41;;;;;;;2.75;2.03;;;14.20;99.90;;;;;;4984509;28;20229;-60
2022/04/24 12:57:09;;;;;;;2.95;2.38;;;14.20;99.90;;;;;;4961650;28;20238;-60
2022/04/24 12:59:39;;;;;;;3.88;1.92;;;14.30;99.90;;;;;;4960546;28;20229;-60
2022/04/24 13:02:07;;;;;;;2.67;2.20;;;14.30;99.90;;;;;;4979632;28;20197;-60
2022/04/24 13:04:35;;;;;;;3.45;2.40;;;14.20;99.90;;;;;;4937932;28;20320;-60
2022/04/24 13:07:03;;;;;;;2.47;2.20;;;14.00;99.90;;;;;;4957580;28;20226;-59